Time;durP1;ratioP1;P1;durP2;ratioP2;P2;SDS_P1;SDS_P2;PMS_P1;PMS_P2;Temp;Humidity;BMP_temperature;BMP_pressure;BME280_temperature;BME280_humidity;BME280_pressure;Samples;Min_cycle;Max_cycle;Signal;HPM_P1;HPM_P2
2023/01/03 00:00:00;;;;;;;30.70;18.30;;;;;;;;;;773634;182;870086;-63
2023/01/03 00:02:26;;;;;;;32.88;18.00;;;;;;;;;;771502;181;924423;-68
2023/01/03 00:04:52;;;;;;;33.33;18.40;;;;;;;;;;777755;180;919721;-68
2023/01/03 00:07:32;;;;;;;28.37;17.40;;;;;;;;;;772907;180;919177;-64
2023/01/03 00:09:44;;;;;;;30.65;16.55;;;;;;;;;;770337;180;918341;-68
2023/01/03 00:14:41;;;;;;;27.90;15.77;;;;;;;;;;774990;181;919102;-67
2023/01/03 00:17:07;;;;;;;27.27;15.50;;;;;;;;;;756001;181;918604;-63
2023/01/03 00:19:33;;;;;;;29.20;15.60;;;;;;;;;;754714;185;920578;-68
2023/01/03 00:21:59;;;;;;;26.37;16.90;;;;;;;;;;761752;182;919442;-63
2023/01/03 00:24:25;;;;;;;34.33;16.33;;;;;;;;;;759928;184;615470;-63
2023/01/03 00:26:50;;;;;;;30.43;15.53;;;;;;;;;;770867;180;921011;-63
2023/01/03 00:29:16;;;;;;;25.50;14.17;;;;;;;;;;780337;181;815608;-63
2023/01/03 00:31:42;;;;;;;26.70;15.50;;;;;;;;;;773543;181;922851;-63
2023/01/03 00:34:08;;;;;;;25.43;15.20;;;;;;;;;;773542;182;815668;-63
2023/01/03 00:36:34;;;;;;;24.73;14.97;;;;;;;;;;779173;182;715671;-62
2023/01/03 00:39:00;;;;;;;23.57;14.70;;;;;;;;;;774037;182;628491;-63
2023/01/03 00:41:25;;;;;;;30.02;14.68;;;;;;;;;;766611;182;919372;-63
2023/01/03 00:43:51;;;;;;;26.50;15.60;;;;;;;;;;764904;183;918455;-68
2023/01/03 00:46:17;;;;;;;26.57;15.87;;;;;;;;;;768550;181;919254;-63
2023/01/03 00:48:43;;;;;;;32.80;16.80;;;;;;;;;;770423;181;922430;-68
2023/01/03 00:51:10;;;;;;;27.30;15.10;;;;;;;;;;763876;182;816772;-68
2023/01/03 00:53:36;;;;;;;25.20;17.47;;;;;;;;;;760991;186;816492;-62
2023/01/03 00:56:02;;;;;;;29.23;17.67;;;;;;;;;;756290;182;919002;-68
2023/01/03 00:58:29;;;;;;;27.42;16.45;;;;;;;;;;754326;184;917283;-68
2023/01/03 01:00:55;;;;;;;30.77;17.20;;;;;;;;;;763661;182;919089;-68
2023/01/03 01:03:21;;;;;;;28.53;17.60;;;;;;;;;;769646;183;920464;-62
2023/01/03 01:05:46;;;;;;;28.33;16.17;;;;;;;;;;769284;182;927580;-68
2023/01/03 01:08:12;;;;;;;33.00;18.23;;;;;;;;;;773316;182;919649;-63
2023/01/03 01:10:41;;;;;;;32.67;17.40;;;;;;;;;;778918;179;810549;-68
2023/01/03 01:13:07;;;;;;;29.53;17.37;;;;;;;;;;768768;183;911586;-68
2023/01/03 01:15:33;;;;;;;33.38;17.80;;;;;;;;;;769386;182;918396;-63
2023/01/03 01:17:59;;;;;;;30.30;17.27;;;;;;;;;;781476;179;625592;-68
2023/01/03 01:20:24;;;;;;;34.13;19.50;;;;;;;;;;777026;181;621530;-62
2023/01/03 01:22:50;;;;;;;34.53;19.33;;;;;;;;;;777649;180;630943;-68
2023/01/03 01:25:16;;;;;;;32.23;17.93;;;;;;;;;;778448;181;919051;-63
2023/01/03 01:27:42;;;;;;;32.10;17.35;;;;;;;;;;769766;181;916086;-62
2023/01/03 01:30:08;;;;;;;28.77;16.37;;;;;;;;;;772089;181;813792;-68
2023/01/03 01:32:34;;;;;;;35.43;18.03;;;;;;;;;;777449;182;626821;-63
2023/01/03 01:34:59;;;;;;;33.30;16.83;;;;;;;;;;781399;181;623182;-63
2023/01/03 01:37:25;;;;;;;32.77;19.57;;;;;;;;;;776744;181;633022;-68
2023/01/03 01:39:51;;;;;;;33.07;18.03;;;;;;;;;;777633;180;627109;-63
2023/01/03 01:44:57;;;;;;;24.43;15.90;;;;;;;;;;777993;181;622118;-62
2023/01/03 01:47:27;;;;;;;35.13;18.57;;;;;;;;;;773554;180;919164;-63
2023/01/03 01:50:02;;;;;;;27.97;17.20;;;;;;;;;;774163;180;918951;-63
2023/01/03 01:52:28;;;;;;;28.83;16.00;;;;;;;;;;759451;182;919880;-67
2023/01/03 01:54:54;;;;;;;34.40;17.70;;;;;;;;;;766178;183;912080;-63
2023/01/03 01:57:20;;;;;;;36.23;17.97;;;;;;;;;;740539;186;919143;-69
2023/01/03 01:59:46;;;;;;;32.05;17.45;;;;;;;;;;755214;185;916734;-68
2023/01/03 02:02:12;;;;;;;29.10;18.43;;;;;;;;;;770626;181;919230;-63
2023/01/03 02:04:38;;;;;;;30.70;18.37;;;;;;;;;;771477;181;919406;-63
2023/01/03 02:07:03;;;;;;;32.40;18.40;;;;;;;;;;762773;181;923452;-70
2023/01/03 02:09:32;;;;;;;26.47;16.00;;;;;;;;;;753894;186;925128;-63
2023/01/03 02:14:31;;;;;;;29.23;16.07;;;;;;;;;;754756;184;918634;-62
2023/01/03 02:16:59;;;;;;;36.77;18.20;;;;;;;;;;757950;183;914960;-67
2023/01/03 02:19:27;;;;;;;35.70;17.83;;;;;;;;;;771457;182;920240;-63
2023/01/03 02:21:53;;;;;;;31.30;15.97;;;;;;;;;;773770;181;919172;-69
2023/01/03 02:24:35;;;;;;;33.33;18.40;;;;;;;;;;770503;179;920487;-67
2023/01/03 02:27:06;;;;;;;40.67;19.47;;;;;;;;;;772905;178;920968;-68
2023/01/03 02:29:47;;;;;;;32.07;18.80;;;;;;;;;;775105;179;818876;-62
2023/01/03 02:32:16;;;;;;;47.87;19.43;;;;;;;;;;768115;178;714855;-68
2023/01/03 02:34:46;;;;;;;41.57;20.23;;;;;;;;;;758379;183;918815;-67
2023/01/03 02:37:26;;;;;;;39.70;19.77;;;;;;;;;;774422;181;919406;-69
2023/01/03 02:39:54;;;;;;;44.27;21.90;;;;;;;;;;776678;179;917960;-63
2023/01/03 02:44:54;;;;;;;39.40;23.17;;;;;;;;;;773058;181;916569;-69
2023/01/03 02:47:20;;;;;;;36.42;21.02;;;;;;;;;;766248;181;920552;-62
2023/01/03 02:49:47;;;;;;;31.87;20.00;;;;;;;;;;777092;178;875484;-67
2023/01/03 02:52:13;;;;;;;34.47;18.73;;;;;;;;;;768087;181;918948;-68
2023/01/03 02:54:39;;;;;;;37.33;19.90;;;;;;;;;;772882;181;917718;-62
2023/01/03 02:57:07;;;;;;;45.37;19.70;;;;;;;;;;769120;182;916762;-67
2023/01/03 02:59:33;;;;;;;38.00;19.47;;;;;;;;;;754920;186;917333;-63
2023/01/03 03:01:59;;;;;;;31.40;19.00;;;;;;;;;;761736;182;890962;-68
2023/01/03 03:04:25;;;;;;;35.70;19.55;;;;;;;;;;773933;180;918975;-67
2023/01/03 03:06:52;;;;;;;35.57;20.43;;;;;;;;;;771226;181;904922;-63
2023/01/03 03:09:18;;;;;;;39.53;22.33;;;;;;;;;;771774;179;919157;-69
2023/01/03 03:14:16;;;;;;;31.87;19.27;;;;;;;;;;778515;180;920772;-62
2023/01/03 03:16:46;;;;;;;32.73;17.83;;;;;;;;;;774215;180;919589;-67
2023/01/03 03:24:48;;;;;;;33.58;19.62;;;;;;;;;;775312;180;918791;-67
2023/01/03 03:24:48;;;;;;;35.97;17.03;;;;;;;;;;776824;180;920923;-63
2023/01/03 03:26:57;;;;;;;33.17;19.77;;;;;;;;;;772166;181;918825;-68
2023/01/03 03:29:23;;;;;;;36.10;18.80;;;;;;;;;;773344;181;637477;-68
2023/01/03 03:31:49;;;;;;;35.23;17.63;;;;;;;;;;774425;181;627831;-67
2023/01/03 03:34:17;;;;;;;33.97;19.27;;;;;;;;;;776941;179;632847;-67
2023/01/03 03:36:47;;;;;;;36.37;19.70;;;;;;;;;;778775;182;819016;-62
2023/01/03 03:46:52;;;;;;;32.77;20.03;;;;;;;;;;773409;181;917720;-63
2023/01/03 03:51:49;;;;;;;35.87;19.30;;;;;;;;;;764846;182;918331;-67
2023/01/03 03:54:15;;;;;;;39.57;21.00;;;;;;;;;;770190;182;918706;-63
2023/01/03 03:56:41;;;;;;;36.47;19.57;;;;;;;;;;770604;182;917168;-68
2023/01/03 03:59:07;;;;;;;40.23;19.97;;;;;;;;;;754343;185;912311;-63
2023/01/03 04:01:33;;;;;;;37.10;20.50;;;;;;;;;;759812;182;919596;-67
2023/01/03 04:03:59;;;;;;;36.47;20.10;;;;;;;;;;769018;181;919675;-67
2023/01/03 04:06:25;;;;;;;32.77;18.67;;;;;;;;;;773942;182;945266;-67
2023/01/03 04:08:51;;;;;;;38.60;20.30;;;;;;;;;;771203;180;920984;-63
2023/01/03 04:11:17;;;;;;;34.53;19.20;;;;;;;;;;770078;182;920831;-63
2023/01/03 04:13:43;;;;;;;39.53;18.67;;;;;;;;;;761389;182;921674;-68
2023/01/03 04:16:09;;;;;;;42.20;20.27;;;;;;;;;;753886;186;918766;-68
2023/01/03 04:18:34;;;;;;;39.03;19.43;;;;;;;;;;764639;183;915408;-67
2023/01/03 04:21:00;;;;;;;39.58;22.45;;;;;;;;;;770910;180;914218;-67
2023/01/03 04:23:26;;;;;;;39.97;21.83;;;;;;;;;;764661;183;918795;-67
2023/01/03 04:25:52;;;;;;;37.13;23.07;;;;;;;;;;764141;184;918991;-67
2023/01/03 04:28:18;;;;;;;41.80;22.47;;;;;;;;;;768513;182;919076;-63
2023/01/03 04:30:44;;;;;;;39.90;20.07;;;;;;;;;;763797;182;919656;-67
2023/01/03 04:33:09;;;;;;;48.10;22.35;;;;;;;;;;769543;180;920300;-67
2023/01/03 04:35:35;;;;;;;40.73;20.77;;;;;;;;;;772698;180;917576;-67
2023/01/03 04:38:01;;;;;;;40.07;21.17;;;;;;;;;;778078;181;917305;-63
2023/01/03 04:40:27;;;;;;;44.00;23.93;;;;;;;;;;768980;181;918984;-68
2023/01/03 04:45:25;;;;;;;40.60;22.60;;;;;;;;;;774518;182;918244;-67
2023/01/03 04:47:51;;;;;;;41.87;22.60;;;;;;;;;;773441;180;922013;-63
2023/01/03 04:50:17;;;;;;;43.00;23.30;;;;;;;;;;762645;183;919579;-63
2023/01/03 04:52:42;;;;;;;42.60;19.77;;;;;;;;;;768416;180;919133;-63
2023/01/03 04:55:08;;;;;;;43.93;21.53;;;;;;;;;;776841;180;918956;-68
2023/01/03 04:57:34;;;;;;;41.43;20.83;;;;;;;;;;771776;180;919353;-63
2023/01/03 05:00:00;;;;;;;48.83;23.40;;;;;;;;;;774162;179;921765;-68
2023/01/03 05:02:26;;;;;;;50.80;24.10;;;;;;;;;;773800;180;921329;-63
2023/01/03 05:04:52;;;;;;;46.63;22.27;;;;;;;;;;770002;180;920732;-69
2023/01/03 05:07:17;;;;;;;40.20;20.98;;;;;;;;;;766068;182;919568;-63
2023/01/03 05:09:43;;;;;;;52.43;21.73;;;;;;;;;;774721;182;919516;-63
2023/01/03 05:12:11;;;;;;;50.03;23.23;;;;;;;;;;769546;182;919271;-68
2023/01/03 05:14:36;;;;;;;41.40;21.70;;;;;;;;;;762378;179;918750;-67
2023/01/03 05:17:01;;;;;;;35.73;21.20;;;;;;;;;;760869;181;919750;-63
2023/01/03 05:19:27;;;;;;;37.80;20.33;;;;;;;;;;777351;181;815493;-63
2023/01/03 05:26:56;;;;;;;42.40;19.37;;;;;;;;;;769091;181;921769;-63
2023/01/03 05:29:22;;;;;;;45.87;20.10;;;;;;;;;;769219;182;865572;-68
2023/01/03 05:31:48;;;;;;;39.53;20.00;;;;;;;;;;764524;181;920063;-62
2023/01/03 05:34:13;;;;;;;45.40;20.47;;;;;;;;;;756154;182;936480;-62
2023/01/03 05:36:39;;;;;;;42.37;22.20;;;;;;;;;;762700;182;900006;-68
2023/01/03 05:39:05;;;;;;;46.83;20.20;;;;;;;;;;769918;179;919082;-63
2023/01/03 05:44:03;;;;;;;38.47;18.90;;;;;;;;;;772173;180;916499;-63
2023/01/03 05:46:29;;;;;;;53.73;21.93;;;;;;;;;;770035;182;918395;-62
2023/01/03 05:48:54;;;;;;;47.63;23.00;;;;;;;;;;773206;182;820344;-67
2023/01/03 05:51:20;;;;;;;44.83;21.58;;;;;;;;;;770285;182;918535;-62
2023/01/03 05:53:46;;;;;;;45.83;19.60;;;;;;;;;;773953;180;816207;-66
2023/01/03 05:56:12;;;;;;;36.87;19.63;;;;;;;;;;773101;181;919462;-62
2023/01/03 05:58:38;;;;;;;46.10;21.20;;;;;;;;;;760978;182;919030;-67
2023/01/03 06:01:09;;;;;;;40.60;20.20;;;;;;;;;;773822;179;916689;-69
2023/01/03 06:03:34;;;;;;;43.77;21.43;;;;;;;;;;779687;179;811526;-68
2023/01/03 06:06:03;;;;;;;44.03;22.37;;;;;;;;;;771467;181;924250;-62
2023/01/03 06:08:28;;;;;;;30.93;18.90;;;;;;;;;;764291;181;919301;-67
2023/01/03 06:10:54;;;;;;;30.00;17.20;;;;;;;;;;769447;182;919715;-67
2023/01/03 06:13:20;;;;;;;38.17;16.15;;;;;;;;;;770725;180;915559;-67
2023/01/03 06:17:53;;;;;;;32.30;17.80;;;;;;;;;;772850;179;917130;-62
2023/01/03 06:18:11;;;;;;;37.20;16.43;;;;;;;;;;776990;181;920702;-67
2023/01/03 06:20:37;;;;;;;34.17;17.37;;;;;;;;;;772386;180;921327;-63
2023/01/03 06:23:03;;;;;;;35.30;17.27;;;;;;;;;;774466;181;918444;-62
2023/01/03 06:25:29;;;;;;;31.83;17.30;;;;;;;;;;774152;181;1022192;-63
2023/01/03 06:27:55;;;;;;;29.70;16.20;;;;;;;;;;778986;180;919015;-62
2023/01/03 06:30:21;;;;;;;32.73;14.90;;;;;;;;;;773106;179;918938;-62
2023/01/03 06:32:47;;;;;;;25.83;14.47;;;;;;;;;;773574;179;818349;-68
2023/01/03 06:35:13;;;;;;;33.45;14.25;;;;;;;;;;776984;181;817383;-62
2023/01/03 06:37:38;;;;;;;25.43;14.53;;;;;;;;;;767087;181;916491;-62
2023/01/03 06:40:05;;;;;;;29.50;15.40;;;;;;;;;;768909;183;918182;-62
2023/01/03 06:53:23;;;;;;;61.10;19.75;;;;;;;;;;766350;178;919186;-67
2023/01/03 06:55:32;;;;;;;31.43;14.27;;;;;;;;;;777331;180;918990;-67
2023/01/03 06:57:58;;;;;;;49.77;16.50;;;;;;;;;;772933;180;918815;-67
2023/01/03 07:00:24;;;;;;;39.10;15.90;;;;;;;;;;779668;180;911451;-67
2023/01/03 07:02:49;;;;;;;30.43;13.60;;;;;;;;;;759432;179;922191;-62
2023/01/03 07:05:15;;;;;;;42.20;13.90;;;;;;;;;;768524;181;920710;-67
2023/01/03 07:07:41;;;;;;;31.63;12.80;;;;;;;;;;775232;181;921071;-62
2023/01/03 07:10:07;;;;;;;31.07;12.30;;;;;;;;;;768633;181;919532;-62
2023/01/03 07:15:16;;;;;;;24.93;11.43;;;;;;;;;;762718;182;914376;-69
2023/01/03 07:17:42;;;;;;;17.43;10.47;;;;;;;;;;779240;181;915698;-62
2023/01/03 07:20:07;;;;;;;26.42;12.20;;;;;;;;;;757244;186;813496;-62
2023/01/03 07:22:33;;;;;;;69.20;13.87;;;;;;;;;;765682;181;959238;-67
2023/01/03 07:24:59;;;;;;;32.67;13.53;;;;;;;;;;775796;181;919019;-63
2023/01/03 07:27:25;;;;;;;29.45;10.95;;;;;;;;;;779329;179;916294;-62
2023/01/03 07:29:51;;;;;;;30.57;13.00;;;;;;;;;;770455;181;918728;-62
2023/01/03 07:32:17;;;;;;;32.50;11.32;;;;;;;;;;769140;182;919564;-62
2023/01/03 07:34:43;;;;;;;37.83;12.70;;;;;;;;;;778627;182;917715;-69
2023/01/03 07:37:08;;;;;;;26.30;11.15;;;;;;;;;;772981;182;939752;-67
2023/01/03 07:39:34;;;;;;;30.70;11.53;;;;;;;;;;774463;180;917942;-63
2023/01/03 07:44:32;;;;;;;23.83;12.63;;;;;;;;;;771545;181;918243;-70
2023/01/03 07:46:58;;;;;;;32.13;13.97;;;;;;;;;;771909;182;918984;-68
2023/01/03 07:49:24;;;;;;;18.53;11.00;;;;;;;;;;772216;181;920062;-62
2023/01/03 07:51:49;;;;;;;27.23;12.00;;;;;;;;;;775011;181;919188;-68
2023/01/03 07:54:15;;;;;;;24.80;11.37;;;;;;;;;;771029;182;917453;-67
2023/01/03 07:56:41;;;;;;;31.48;13.07;;;;;;;;;;774505;181;853782;-67
2023/01/03 07:59:07;;;;;;;26.00;11.60;;;;;;;;;;769965;181;916503;-67
2023/01/03 08:01:33;;;;;;;30.47;12.77;;;;;;;;;;756103;186;819445;-68
2023/01/03 08:03:59;;;;;;;24.95;12.15;;;;;;;;;;762377;182;863508;-67
2023/01/03 08:06:24;;;;;;;31.73;13.57;;;;;;;;;;775313;183;797120;-67
2023/01/03 08:13:53;;;;;;;28.38;12.63;;;;;;;;;;769360;181;919090;-62
2023/01/03 08:16:19;;;;;;;20.70;11.77;;;;;;;;;;773651;181;918680;-62
2023/01/03 08:18:45;;;;;;;23.80;11.17;;;;;;;;;;768548;183;918662;-62
2023/01/03 08:21:11;;;;;;;17.58;11.43;;;;;;;;;;763362;181;919740;-62
2023/01/03 08:23:37;;;;;;;19.83;11.53;;;;;;;;;;763619;182;927223;-66
2023/01/03 08:26:03;;;;;;;21.90;11.17;;;;;;;;;;774420;180;919061;-62
2023/01/03 08:28:29;;;;;;;19.87;12.37;;;;;;;;;;775593;180;918882;-62
2023/01/03 08:30:54;;;;;;;19.53;11.90;;;;;;;;;;773442;179;918694;-62
2023/01/03 08:33:20;;;;;;;21.77;12.00;;;;;;;;;;775121;181;919889;-67
2023/01/03 08:36:02;;;;;;;25.33;13.67;;;;;;;;;;761978;181;919335;-62
2023/01/03 08:38:27;;;;;;;31.03;11.50;;;;;;;;;;768765;181;919283;-67
2023/01/03 08:40:53;;;;;;;61.03;15.20;;;;;;;;;;772787;179;912708;-68
2023/01/03 08:43:18;;;;;;;29.63;12.73;;;;;;;;;;778432;179;921152;-67
2023/01/03 08:45:44;;;;;;;23.13;11.27;;;;;;;;;;760989;182;923989;-62
2023/01/03 08:48:10;;;;;;;24.60;11.97;;;;;;;;;;766114;182;989403;-62
2023/01/03 08:50:37;;;;;;;24.00;11.45;;;;;;;;;;773306;179;922767;-67
2023/01/03 08:53:04;;;;;;;24.70;11.63;;;;;;;;;;771340;176;918769;-67
2023/01/03 08:55:28;;;;;;;26.53;12.00;;;;;;;;;;765349;180;919534;-63
2023/01/03 08:57:54;;;;;;;35.73;11.83;;;;;;;;;;770432;182;908273;-69
2023/01/03 09:00:20;;;;;;;18.57;10.60;;;;;;;;;;776135;180;918100;-67
2023/01/03 09:02:46;;;;;;;26.83;11.90;;;;;;;;;;762171;182;918811;-63
2023/01/03 09:05:12;;;;;;;22.13;12.10;;;;;;;;;;768298;181;918755;-68
2023/01/03 09:07:38;;;;;;;25.67;12.30;;;;;;;;;;775168;181;888781;-67
2023/01/03 09:10:04;;;;;;;20.33;13.40;;;;;;;;;;771131;181;913399;-68
2023/01/03 09:12:30;;;;;;;31.70;13.88;;;;;;;;;;765118;182;912545;-67
2023/01/03 09:14:55;;;;;;;24.77;13.20;;;;;;;;;;773838;180;917977;-62
2023/01/03 09:17:21;;;;;;;20.47;11.80;;;;;;;;;;773071;180;919035;-63
2023/01/03 09:19:47;;;;;;;24.63;14.20;;;;;;;;;;765750;182;919717;-63
2023/01/03 09:22:13;;;;;;;23.53;13.50;;;;;;;;;;766871;181;918870;-63
2023/01/03 09:24:39;;;;;;;23.05;13.90;;;;;;;;;;774614;182;919623;-68
2023/01/03 09:27:05;;;;;;;25.40;15.13;;;;;;;;;;768562;182;817036;-62
2023/01/03 09:29:31;;;;;;;26.77;13.60;;;;;;;;;;760877;181;919242;-68
2023/01/03 09:31:59;;;;;;;23.02;14.45;;;;;;;;;;773762;182;919147;-63
2023/01/03 09:34:23;;;;;;;24.37;14.37;;;;;;;;;;771633;179;864968;-68
2023/01/03 09:36:49;;;;;;;22.90;12.50;;;;;;;;;;770445;180;914033;-67
2023/01/03 09:39:15;;;;;;;21.75;12.98;;;;;;;;;;771625;180;919243;-67
2023/01/03 09:41:41;;;;;;;29.20;15.57;;;;;;;;;;768370;180;1002158;-63
2023/01/03 09:44:07;;;;;;;29.50;15.83;;;;;;;;;;770180;180;821321;-63
2023/01/03 09:46:34;;;;;;;25.93;13.27;;;;;;;;;;771343;181;919197;-67
2023/01/03 09:48:59;;;;;;;26.80;15.27;;;;;;;;;;776142;181;919909;-69
2023/01/03 10:04:25;;;;;;;25.97;16.67;;;;;;;;;;768237;181;816926;-63
2023/01/03 10:07:07;;;;;;;24.30;16.23;;;;;;;;;;768338;179;920016;-63
2023/01/03 10:09:39;;;;;;;26.70;15.60;;;;;;;;;;775172;177;919483;-68
2023/01/03 10:12:11;;;;;;;30.10;18.57;;;;;;;;;;767861;179;875799;-63
2023/01/03 10:14:38;;;;;;;30.02;16.85;;;;;;;;;;764130;182;918711;-63
2023/01/03 10:17:06;;;;;;;34.13;19.23;;;;;;;;;;772438;182;918277;-67
2023/01/03 10:19:46;;;;;;;31.40;17.07;;;;;;;;;;767198;182;922540;-63
2023/01/03 10:22:12;;;;;;;35.27;16.70;;;;;;;;;;769103;181;925159;-62
2023/01/03 10:24:40;;;;;;;30.77;18.33;;;;;;;;;;767715;181;919871;-67
2023/01/03 10:27:06;;;;;;;33.60;18.80;;;;;;;;;;773288;181;926175;-62
2023/01/03 10:29:32;;;;;;;30.37;17.47;;;;;;;;;;773432;181;915259;-61
2023/01/03 10:32:13;;;;;;;29.83;16.93;;;;;;;;;;763979;181;909422;-67
2023/01/03 10:34:39;;;;;;;26.85;17.42;;;;;;;;;;764362;180;918451;-68
2023/01/03 10:37:09;;;;;;;28.83;18.00;;;;;;;;;;768266;180;914688;-63
2023/01/03 10:39:35;;;;;;;30.83;15.93;;;;;;;;;;770180;181;919530;-68
2023/01/03 10:42:01;;;;;;;28.17;16.53;;;;;;;;;;764910;181;920378;-68
2023/01/03 10:44:27;;;;;;;31.43;19.57;;;;;;;;;;764579;181;920461;-63
2023/01/03 10:46:53;;;;;;;33.10;20.05;;;;;;;;;;766023;182;920737;-67
2023/01/03 10:49:20;;;;;;;33.07;18.33;;;;;;;;;;785978;175;814914;-64
2023/01/03 10:51:54;;;;;;;34.23;19.00;;;;;;;;;;773789;181;829610;-63
2023/01/03 10:54:22;;;;;;;33.17;20.07;;;;;;;;;;774852;180;915351;-62
2023/01/03 10:56:48;;;;;;;33.13;18.60;;;;;;;;;;773735;179;918256;-63
2023/01/03 10:59:14;;;;;;;35.23;19.60;;;;;;;;;;780971;179;899193;-67
2023/01/03 11:01:40;;;;;;;29.73;15.63;;;;;;;;;;770201;181;860756;-63
2023/01/03 11:04:08;;;;;;;32.07;17.10;;;;;;;;;;771106;180;916407;-63
2023/01/03 11:06:34;;;;;;;25.67;15.83;;;;;;;;;;773074;181;915662;-65
2023/01/03 11:09:02;;;;;;;27.27;17.40;;;;;;;;;;770162;181;890780;-63
2023/01/03 11:11:28;;;;;;;27.47;17.00;;;;;;;;;;769250;182;919271;-63
2023/01/03 11:14:00;;;;;;;25.60;16.23;;;;;;;;;;773377;181;919133;-70
2023/01/03 11:16:26;;;;;;;29.07;16.97;;;;;;;;;;767786;181;816815;-63
2023/01/03 11:18:58;;;;;;;25.03;18.53;;;;;;;;;;768727;181;919319;-63
2023/01/03 11:21:25;;;;;;;26.23;16.20;;;;;;;;;;767189;181;940559;-68
2023/01/03 11:24:06;;;;;;;32.90;17.60;;;;;;;;;;768285;181;919350;-67
2023/01/03 11:26:47;;;;;;;26.30;17.33;;;;;;;;;;758542;182;917854;-69
2023/01/03 11:29:31;;;;;;;34.90;18.00;;;;;;;;;;776559;179;919434;-62
2023/01/03 11:32:03;;;;;;;26.90;17.27;;;;;;;;;;770157;179;949089;-68
2023/01/03 11:34:35;;;;;;;28.20;16.40;;;;;;;;;;765717;182;919437;-62
2023/01/03 11:37:04;;;;;;;28.37;18.20;;;;;;;;;;772519;181;920271;-63
2023/01/03 11:39:30;;;;;;;30.50;18.77;;;;;;;;;;767154;181;818245;-63
2023/01/03 11:42:12;;;;;;;27.93;16.37;;;;;;;;;;769382;181;816774;-63
2023/01/03 11:44:41;;;;;;;28.67;18.13;;;;;;;;;;768384;182;923104;-68
2023/01/03 11:47:12;;;;;;;25.65;16.08;;;;;;;;;;776074;181;884787;-62
2023/01/03 11:49:44;;;;;;;26.80;16.10;;;;;;;;;;770440;181;919442;-63
2023/01/03 11:52:12;;;;;;;25.27;15.27;;;;;;;;;;770162;181;818985;-63
2023/01/03 11:54:53;;;;;;;23.93;15.00;;;;;;;;;;767163;181;920161;-67
2023/01/03 11:57:19;;;;;;;33.30;17.60;;;;;;;;;;770498;181;918795;-63
2023/01/03 11:59:55;;;;;;;27.95;17.10;;;;;;;;;;768923;182;1013677;-63
2023/01/03 12:02:36;;;;;;;34.37;17.37;;;;;;;;;;777593;179;810545;-67
2023/01/03 12:05:15;;;;;;;26.97;17.90;;;;;;;;;;774901;179;838486;-63
2023/01/03 12:07:47;;;;;;;24.83;16.00;;;;;;;;;;768785;181;919691;-63
2023/01/03 12:10:13;;;;;;;32.93;18.57;;;;;;;;;;770269;181;917144;-63
2023/01/03 12:12:54;;;;;;;28.93;18.80;;;;;;;;;;766352;181;1019591;-67
2023/01/03 12:15:19;;;;;;;33.43;20.37;;;;;;;;;;753791;182;919555;-68
2023/01/03 12:17:46;;;;;;;29.30;17.30;;;;;;;;;;773339;181;917669;-62
2023/01/03 12:20:16;;;;;;;32.27;19.27;;;;;;;;;;766103;179;916954;-68
2023/01/03 12:22:42;;;;;;;28.83;16.77;;;;;;;;;;772094;181;915494;-68
2023/01/03 12:25:14;;;;;;;25.08;15.48;;;;;;;;;;772485;180;919861;-68
2023/01/03 12:27:41;;;;;;;30.53;17.30;;;;;;;;;;767144;182;833533;-63
2023/01/03 12:30:22;;;;;;;31.77;15.13;;;;;;;;;;768790;181;917969;-63
2023/01/03 12:32:49;;;;;;;36.30;20.37;;;;;;;;;;768264;179;887841;-63
2023/01/03 12:35:34;;;;;;;32.67;18.77;;;;;;;;;;765839;181;918097;-69
2023/01/03 12:38:00;;;;;;;28.13;18.27;;;;;;;;;;769374;179;921480;-67
2023/01/03 12:40:26;;;;;;;24.87;15.83;;;;;;;;;;771773;181;817814;-68
2023/01/03 12:42:52;;;;;;;33.13;19.13;;;;;;;;;;770446;181;916374;-67
2023/01/03 12:45:23;;;;;;;32.87;19.53;;;;;;;;;;770934;180;816809;-70
2023/01/03 12:47:50;;;;;;;29.55;17.27;;;;;;;;;;769329;182;924161;-63
2023/01/03 12:50:17;;;;;;;28.57;17.20;;;;;;;;;;771072;181;889205;-68
2023/01/03 12:52:42;;;;;;;28.90;16.30;;;;;;;;;;771659;179;915153;-63
2023/01/03 12:55:12;;;;;;;29.23;15.33;;;;;;;;;;767410;181;915303;-63
2023/01/03 12:57:38;;;;;;;25.43;15.37;;;;;;;;;;770354;180;918354;-63
2023/01/03 13:00:20;;;;;;;32.75;16.65;;;;;;;;;;770890;182;883910;-62
2023/01/03 13:02:55;;;;;;;34.17;17.77;;;;;;;;;;773278;178;919097;-67
2023/01/03 13:05:22;;;;;;;28.87;17.47;;;;;;;;;;771622;180;920185;-68
2023/01/03 13:07:48;;;;;;;33.77;18.87;;;;;;;;;;766053;181;925194;-62
2023/01/03 13:10:14;;;;;;;28.07;18.40;;;;;;;;;;766172;181;1021306;-68
2023/01/03 13:12:40;;;;;;;31.37;18.77;;;;;;;;;;766006;181;919265;-63
2023/01/03 13:15:12;;;;;;;35.77;20.40;;;;;;;;;;771489;180;915646;-69
2023/01/03 13:17:40;;;;;;;26.73;15.77;;;;;;;;;;770438;180;919712;-63
2023/01/03 13:20:12;;;;;;;30.67;16.63;;;;;;;;;;774153;181;919991;-67
2023/01/03 13:22:43;;;;;;;33.97;17.53;;;;;;;;;;772125;181;918357;-68
2023/01/03 13:25:15;;;;;;;30.87;17.93;;;;;;;;;;766381;181;919420;-68
2023/01/03 13:27:41;;;;;;;31.93;17.57;;;;;;;;;;769213;180;918821;-69
2023/01/03 13:30:07;;;;;;;27.97;16.57;;;;;;;;;;770216;180;917309;-63
2023/01/03 13:32:33;;;;;;;34.30;17.40;;;;;;;;;;772097;181;918432;-69
2023/01/03 13:35:08;;;;;;;27.57;17.17;;;;;;;;;;768730;180;921482;-68
2023/01/03 13:37:50;;;;;;;31.87;18.77;;;;;;;;;;769527;180;912983;-63
2023/01/03 13:40:21;;;;;;;30.50;18.10;;;;;;;;;;766569;182;821009;-65
2023/01/03 13:42:47;;;;;;;29.07;17.67;;;;;;;;;;766889;181;919314;-63
2023/01/03 13:45:29;;;;;;;33.47;20.63;;;;;;;;;;777055;182;816685;-68
2023/01/03 13:47:55;;;;;;;31.53;17.80;;;;;;;;;;766960;182;813384;-63
2023/01/03 13:50:21;;;;;;;33.53;18.20;;;;;;;;;;766599;182;918617;-68
2023/01/03 13:52:52;;;;;;;31.17;16.08;;;;;;;;;;764591;182;918857;-63
2023/01/03 13:55:24;;;;;;;28.47;17.27;;;;;;;;;;756137;185;818948;-68
2023/01/03 13:57:50;;;;;;;31.00;18.27;;;;;;;;;;766626;181;918910;-68
2023/01/03 14:00:17;;;;;;;33.53;17.67;;;;;;;;;;764128;182;817231;-62
2023/01/03 14:02:49;;;;;;;33.60;18.77;;;;;;;;;;770368;180;917108;-68
2023/01/03 14:05:19;;;;;;;37.03;18.60;;;;;;;;;;772384;181;614215;-68
2023/01/03 14:07:48;;;;;;;28.60;18.47;;;;;;;;;;773182;181;920661;-61
2023/01/03 14:10:34;;;;;;;25.03;16.37;;;;;;;;;;768253;181;919149;-67
2023/01/03 14:13:02;;;;;;;30.30;18.33;;;;;;;;;;772984;178;1016243;-67
2023/01/03 14:15:28;;;;;;;26.07;16.33;;;;;;;;;;759371;181;918975;-68
2023/01/03 14:17:54;;;;;;;29.70;19.33;;;;;;;;;;768049;181;918333;-62
2023/01/03 14:20:20;;;;;;;31.43;18.70;;;;;;;;;;771093;182;824557;-67
2023/01/03 14:22:47;;;;;;;31.03;17.37;;;;;;;;;;767932;182;919418;-68
2023/01/03 14:25:17;;;;;;;32.10;19.40;;;;;;;;;;773972;179;922170;-62
2023/01/03 14:27:43;;;;;;;26.40;16.90;;;;;;;;;;760857;180;923119;-67
2023/01/03 14:30:15;;;;;;;32.27;16.27;;;;;;;;;;771361;179;919488;-62
2023/01/03 14:32:41;;;;;;;24.13;16.30;;;;;;;;;;772436;180;919560;-63
2023/01/03 14:35:07;;;;;;;27.33;15.30;;;;;;;;;;770893;181;817019;-68
2023/01/03 14:37:33;;;;;;;33.20;18.30;;;;;;;;;;773291;180;915264;-67
2023/01/03 14:40:00;;;;;;;32.10;15.90;;;;;;;;;;765701;181;920258;-62
2023/01/03 14:42:26;;;;;;;30.15;16.90;;;;;;;;;;764668;181;921860;-66
2023/01/03 14:44:54;;;;;;;26.40;16.47;;;;;;;;;;767598;180;835895;-62
2023/01/03 14:47:20;;;;;;;30.13;19.23;;;;;;;;;;765110;182;921492;-62
2023/01/03 14:49:46;;;;;;;30.70;18.50;;;;;;;;;;769465;181;818609;-69
2023/01/03 14:52:14;;;;;;;36.50;18.20;;;;;;;;;;767804;181;917923;-62
2023/01/03 14:54:40;;;;;;;37.00;18.83;;;;;;;;;;774725;181;919010;-62
2023/01/03 14:57:06;;;;;;;31.60;17.20;;;;;;;;;;767085;181;819555;-69
2023/01/03 14:59:31;;;;;;;27.33;17.60;;;;;;;;;;765243;182;1084142;-67
2023/01/03 15:01:58;;;;;;;35.53;19.65;;;;;;;;;;776239;181;917482;-68
2023/01/03 15:04:24;;;;;;;29.03;17.73;;;;;;;;;;767367;180;920734;-62
2023/01/03 15:06:55;;;;;;;34.60;18.70;;;;;;;;;;773742;180;914007;-67
2023/01/03 15:09:21;;;;;;;32.53;20.30;;;;;;;;;;771363;182;920720;-62
2023/01/03 15:14:19;;;;;;;43.10;22.80;;;;;;;;;;774786;180;874156;-67
2023/01/03 15:16:45;;;;;;;43.60;30.92;;;;;;;;;;768761;179;919073;-67